createdAt,value
2023-05-16T00:01:13.879Z,96783.50
2023-05-16T00:03:42.664Z,96776.13
2023-05-16T00:06:09.983Z,96775.59
2023-05-16T00:08:36.974Z,96778.06
2023-05-16T00:11:03.979Z,96766.50
2023-05-16T00:13:31.114Z,96763.13
2023-05-16T00:15:59.604Z,96760.91
2023-05-16T00:18:27.530Z,96762.38
2023-05-16T00:20:55.033Z,96758.97
2023-05-16T00:23:25.072Z,96756.75
2023-05-16T00:25:52.057Z,96755.31
2023-05-16T00:28:18.795Z,96752.13
2023-05-16T00:30:45.750Z,96751.94
2023-05-16T00:33:12.745Z,96744.22
2023-05-16T00:35:39.703Z,96757.38
2023-05-16T00:38:06.596Z,96745.69
2023-05-16T00:40:33.490Z,96744.28
2023-05-16T00:43:00.564Z,96746.75
2023-05-16T00:45:27.836Z,96747.75
2023-05-16T00:47:55.224Z,96743.88
2023-05-16T00:50:22.541Z,96751.69
2023-05-16T00:52:49.867Z,96755.75
2023-05-16T00:55:19.604Z,96759.88
2023-05-16T00:57:47.021Z,96753.09
2023-05-16T01:00:20.083Z,96752.50
2023-05-16T01:02:48.375Z,96753.72
2023-05-16T01:05:15.635Z,96759.47
2023-05-16T01:07:42.785Z,96756.19
2023-05-16T01:10:10.355Z,96750.84
2023-05-16T01:12:56.588Z,96744.88
2023-05-16T01:15:32.013Z,96746.31
2023-05-16T01:18:16.832Z,96748.16
2023-05-16T01:20:57.263Z,96740.56
2023-05-16T01:23:30.149Z,96735.25
2023-05-16T01:26:17.502Z,96736.69
2023-05-16T01:28:48.556Z,96730.88
2023-05-16T01:31:16.790Z,96733.38
2023-05-16T01:33:44.193Z,96726.19
2023-05-16T01:36:26.764Z,96717.94
2023-05-16T01:39:11.467Z,96724.16
2023-05-16T01:42:11.204Z,96730.91
2023-05-16T01:44:44.096Z,96732.16
2023-05-16T01:47:16.648Z,96743.44
2023-05-16T01:49:56.387Z,96753.72
2023-05-16T01:52:28.842Z,96735.22
2023-05-16T01:54:59.480Z,96726.63
2023-05-16T01:57:28.531Z,96722.09
2023-05-16T01:59:56.347Z,96722.94
2023-05-16T02:02:23.492Z,96724.78
2023-05-16T02:04:54.000Z,96724.16
2023-05-16T02:07:21.189Z,96721.47
2023-05-16T02:09:48.181Z,96722.66
2023-05-16T02:12:15.012Z,96723.47
2023-05-16T02:14:42.278Z,96727.34
2023-05-16T02:17:09.379Z,96718.72
2023-05-16T02:19:36.507Z,96715.41
2023-05-16T02:22:03.311Z,96706.38
2023-05-16T02:24:30.325Z,96714.91
2023-05-16T02:26:57.242Z,96700.56
2023-05-16T02:29:24.599Z,96695.22
2023-05-16T02:31:51.748Z,96697.41
2023-05-16T02:34:18.790Z,96699.22
2023-05-16T02:36:45.597Z,96700.34
2023-05-16T02:39:12.303Z,96692.31
2023-05-16T02:41:39.356Z,96692.88
2023-05-16T02:44:06.176Z,96696.47
2023-05-16T02:46:35.198Z,96690.72
2023-05-16T02:49:02.346Z,96690.13
2023-05-16T02:51:29.445Z,96691.53
2023-05-16T02:54:00.740Z,96685.34
2023-05-16T02:56:28.116Z,96693.41
2023-05-16T02:58:56.209Z,96690.50
2023-05-16T03:01:23.517Z,96702.28
2023-05-16T03:03:50.583Z,96697.56
2023-05-16T03:06:17.408Z,96699.38
2023-05-16T03:08:44.060Z,96690.78
2023-05-16T03:11:11.134Z,96695.28
2023-05-16T03:13:37.847Z,96686.06
2023-05-16T03:16:09.621Z,96688.06
2023-05-16T03:18:36.731Z,96689.97
2023-05-16T03:21:03.549Z,96695.88
2023-05-16T03:23:30.396Z,96696.41
2023-05-16T03:25:57.454Z,96697.41
2023-05-16T03:28:24.632Z,96700.81
2023-05-16T03:30:51.272Z,96694.75
2023-05-16T03:33:19.195Z,96703.53
2023-05-16T03:35:46.794Z,96705.47
2023-05-16T03:38:13.969Z,96712.50
2023-05-16T03:40:41.782Z,96709.16
2023-05-16T03:43:08.622Z,96711.59
2023-05-16T03:45:35.387Z,96709.06
2023-05-16T03:48:02.350Z,96713.50
2023-05-16T03:50:29.280Z,96706.78
2023-05-16T03:52:56.363Z,96711.97
2023-05-16T03:55:23.302Z,96721.31
2023-05-16T03:57:59.453Z,96725.00
2023-05-16T04:00:26.847Z,96723.88
2023-05-16T04:02:53.712Z,96727.56
2023-05-16T04:05:20.737Z,96734.50
2023-05-16T04:07:47.538Z,96735.16
2023-05-16T04:10:17.554Z,96735.06
2023-05-16T04:12:44.999Z,96727.47
2023-05-16T04:15:12.200Z,96725.84
2023-05-16T04:18:02.941Z,96729.31
2023-05-16T04:20:31.138Z,96732.59
2023-05-16T04:22:59.157Z,96736.91
2023-05-16T04:25:26.324Z,96740.78
2023-05-16T04:27:53.812Z,96753.41
2023-05-16T04:30:20.498Z,96750.59
2023-05-16T04:32:47.519Z,96746.47
2023-05-16T04:35:14.628Z,96759.59
2023-05-16T04:37:41.304Z,96753.88
2023-05-16T04:40:09.925Z,96753.47
2023-05-16T04:42:37.014Z,96754.72
2023-05-16T04:45:06.701Z,96763.75
2023-05-16T04:47:33.871Z,96763.44
2023-05-16T04:50:01.205Z,96759.94
2023-05-16T04:52:27.873Z,96751.91
2023-05-16T04:54:54.558Z,96762.19
2023-05-16T04:57:22.213Z,96757.66
2023-05-16T04:59:48.834Z,96755.25
2023-05-16T05:02:15.773Z,96747.66
2023-05-16T05:04:42.829Z,96749.75
2023-05-16T05:07:09.694Z,96743.19
2023-05-16T05:09:36.477Z,96739.78
2023-05-16T05:12:03.715Z,96743.47
2023-05-16T05:14:30.523Z,96743.47
2023-05-16T05:16:57.375Z,96735.50
2023-05-16T05:19:24.200Z,96737.34
2023-05-16T05:21:51.343Z,96750.53
2023-05-16T05:24:21.337Z,96755.44
2023-05-16T05:26:48.157Z,96759.50
2023-05-16T05:29:14.898Z,96755.44
2023-05-16T05:31:41.880Z,96754.88
2023-05-16T05:34:08.905Z,96756.31
2023-05-16T05:36:35.902Z,96753.03
2023-05-16T05:39:02.721Z,96747.91
2023-05-16T05:41:29.438Z,96748.31
2023-05-16T05:43:56.092Z,96739.09
2023-05-16T05:46:25.113Z,96727.31
2023-05-16T05:48:52.762Z,96740.28
2023-05-16T05:51:19.695Z,96731.97
2023-05-16T05:53:46.808Z,96732.50
2023-05-16T05:56:13.816Z,96739.91
2023-05-16T05:58:43.160Z,96729.91
2023-05-16T06:01:11.508Z,96735.47
2023-05-16T06:03:38.620Z,96734.72
2023-05-16T06:06:06.041Z,96739.63
2023-05-16T06:08:33.620Z,96733.91
2023-05-16T06:11:00.841Z,96740.47
2023-05-16T06:13:27.790Z,96745.00
2023-05-16T06:15:55.204Z,96745.03
2023-05-16T06:18:22.103Z,96743.41
2023-05-16T06:20:49.273Z,96739.13
2023-05-16T06:23:18.245Z,96748.38
2023-05-16T06:25:46.175Z,96747.13
2023-05-16T06:28:15.983Z,96746.97
2023-05-16T06:30:42.741Z,96740.38
2023-05-16T06:33:09.624Z,96751.25
2023-05-16T06:35:36.684Z,96739.13
2023-05-16T06:38:03.520Z,96742.38
2023-05-16T06:40:30.557Z,96739.75
2023-05-16T06:42:58.604Z,96745.00
2023-05-16T06:45:25.623Z,96746.59
2023-05-16T06:47:54.146Z,96744.44
2023-05-16T06:50:23.214Z,96750.34
2023-05-16T06:52:50.098Z,96731.38
2023-05-16T06:55:17.137Z,96737.75
2023-05-16T06:57:44.102Z,96738.91
2023-05-16T07:00:14.504Z,96739.88
2023-05-16T07:02:42.088Z,96739.56
2023-05-16T07:05:08.887Z,96740.34
2023-05-16T07:07:36.594Z,96737.84
2023-05-16T07:10:04.824Z,96740.25
2023-05-16T07:12:31.841Z,96742.66
2023-05-16T07:14:58.554Z,96742.31
2023-05-16T07:17:25.517Z,96753.16
2023-05-16T07:19:55.365Z,96757.00
2023-05-16T07:22:22.154Z,96754.00
2023-05-16T07:24:48.971Z,96748.19
2023-05-16T07:27:19.950Z,96751.94
2023-05-16T07:29:47.766Z,96749.13
2023-05-16T07:32:14.858Z,96745.84
2023-05-16T07:34:41.747Z,96746.00
2023-05-16T07:37:13.093Z,96742.28
2023-05-16T07:39:40.399Z,96736.34
2023-05-16T07:42:08.480Z,96736.34
2023-05-16T07:44:36.283Z,96742.72
2023-05-16T07:47:03.654Z,96749.66
2023-05-16T07:49:30.579Z,96753.31
2023-05-16T07:51:57.615Z,96751.06
2023-05-16T07:54:24.614Z,96758.91
2023-05-16T07:56:51.673Z,96756.31
2023-05-16T07:59:18.519Z,96760.53
2023-05-16T08:01:48.700Z,96755.84
2023-05-16T08:04:15.697Z,96755.09
2023-05-16T08:06:42.449Z,96747.31
2023-05-16T08:09:12.192Z,96757.88
2023-05-16T08:11:40.415Z,96747.56
2023-05-16T08:14:07.282Z,96747.84
2023-05-16T08:16:34.048Z,96746.47
2023-05-16T08:19:02.242Z,96758.88
2023-05-16T08:21:29.090Z,96759.06
2023-05-16T08:23:56.163Z,96751.31
2023-05-16T08:26:23.243Z,96758.19
2023-05-16T08:28:50.447Z,96755.75
2023-05-16T08:31:17.276Z,96750.66
2023-05-16T08:33:44.368Z,96756.00
2023-05-16T08:36:11.476Z,96757.41
2023-05-16T08:38:38.321Z,96743.31
2023-05-16T08:41:05.163Z,96739.84
2023-05-16T08:43:33.726Z,96741.69
2023-05-16T08:46:00.590Z,96748.91
2023-05-16T08:48:28.988Z,96750.78
2023-05-16T08:50:56.178Z,96760.38
2023-05-16T08:53:32.100Z,96755.97
2023-05-16T08:56:01.346Z,96749.13
2023-05-16T08:58:30.199Z,96746.84
2023-05-16T09:00:57.416Z,96752.16
2023-05-16T09:03:25.431Z,96737.41
2023-05-16T09:05:52.834Z,96740.84
2023-05-16T09:08:20.364Z,96746.16
2023-05-16T09:10:47.129Z,96744.09
2023-05-16T09:13:15.233Z,96744.84
2023-05-16T09:15:44.034Z,96739.94
2023-05-16T09:18:14.163Z,96733.09
2023-05-16T09:20:47.620Z,96735.53
2023-05-16T09:23:14.412Z,96743.31
2023-05-16T09:25:41.840Z,96744.50
2023-05-16T09:28:13.029Z,96746.56
2023-05-16T09:30:39.927Z,96743.81
2023-05-16T09:33:09.930Z,96735.22
2023-05-16T09:35:43.876Z,96743.25
2023-05-16T09:38:17.090Z,96743.06
2023-05-16T09:40:45.177Z,96736.88
2023-05-16T09:43:16.969Z,96741.91
2023-05-16T09:45:49.198Z,96737.72
2023-05-16T09:48:23.297Z,96730.88
2023-05-16T09:50:54.142Z,96735.34
2023-05-16T09:53:29.129Z,96736.44
2023-05-16T09:56:08.095Z,96732.84
2023-05-16T09:58:36.941Z,96738.22
2023-05-16T10:01:04.192Z,96740.34
2023-05-16T10:03:31.673Z,96738.09
2023-05-16T10:06:00.039Z,96736.28
2023-05-16T10:08:27.270Z,96732.97
2023-05-16T10:10:57.052Z,96739.88
2023-05-16T10:13:35.305Z,96745.81
2023-05-16T10:16:23.786Z,96743.53
2023-05-16T10:18:52.070Z,96725.56
2023-05-16T10:21:22.289Z,96725.25
2023-05-16T10:23:51.963Z,96715.66
2023-05-16T10:26:23.359Z,96714.41
2023-05-16T10:28:51.899Z,96700.03
2023-05-16T10:31:18.959Z,96695.47
2023-05-16T10:33:46.520Z,96694.19
2023-05-16T10:36:14.205Z,96693.44
2023-05-16T10:38:42.141Z,96688.59
2023-05-16T10:41:10.068Z,96684.09
2023-05-16T10:43:37.094Z,96683.59
2023-05-16T10:46:04.989Z,96680.25
2023-05-16T10:48:40.395Z,96672.16
2023-05-16T10:51:22.288Z,96670.38
2023-05-16T10:53:52.763Z,96661.34
2023-05-16T10:56:24.488Z,96654.16
2023-05-16T10:58:54.221Z,96655.72
2023-05-16T11:01:35.078Z,96650.66
2023-05-16T11:04:08.013Z,96634.09
2023-05-16T11:06:40.885Z,96633.47
2023-05-16T11:09:10.690Z,96625.97
2023-05-16T11:11:41.489Z,96614.22
2023-05-16T11:14:08.930Z,96604.44
2023-05-16T11:16:36.516Z,96610.78
2023-05-16T11:19:09.249Z,96604.59
2023-05-16T11:22:12.129Z,96608.38
2023-05-16T11:24:43.630Z,96609.81
2023-05-16T11:27:14.292Z,96607.53
2023-05-16T11:29:41.289Z,96613.53
2023-05-16T11:32:08.980Z,96611.63
2023-05-16T11:34:39.911Z,96597.81
2023-05-16T11:37:07.066Z,96591.09
2023-05-16T11:39:34.608Z,96595.91
2023-05-16T11:42:02.617Z,96585.88
2023-05-16T11:44:29.551Z,96587.22
2023-05-16T11:46:56.990Z,96581.41
2023-05-16T11:49:23.908Z,96574.91
2023-05-16T11:51:52.779Z,96566.34
2023-05-16T11:54:19.910Z,96577.16
2023-05-16T11:56:46.965Z,96571.31
2023-05-16T11:59:14.303Z,96568.66
2023-05-16T12:01:41.356Z,96566.56
2023-05-16T12:04:12.584Z,96563.91
2023-05-16T12:06:40.974Z,96566.13
2023-05-16T12:09:11.804Z,96562.41
2023-05-16T12:11:39.309Z,96550.75
2023-05-16T12:14:07.838Z,96565.50
2023-05-16T12:16:37.336Z,96560.66
2023-05-16T12:19:06.461Z,96568.59
2023-05-16T12:21:33.481Z,96573.50
2023-05-16T12:24:00.802Z,96567.84
2023-05-16T12:26:34.225Z,96580.50
2023-05-16T12:29:09.174Z,96581.03
2023-05-16T12:31:38.239Z,96583.41
2023-05-16T12:34:06.236Z,96580.91
2023-05-16T12:36:35.227Z,96580.09
2023-05-16T12:39:04.190Z,96578.72
2023-05-16T12:41:31.763Z,96585.81
2023-05-16T12:44:12.516Z,96584.75
2023-05-16T12:46:58.489Z,96594.72
2023-05-16T12:49:25.628Z,96593.72
2023-05-16T12:51:59.197Z,96598.41
2023-05-16T12:54:26.140Z,96605.41
2023-05-16T12:56:53.154Z,96610.13
2023-05-16T12:59:20.590Z,96617.09
2023-05-16T13:01:47.651Z,96619.63
2023-05-16T13:04:19.255Z,96632.41
2023-05-16T13:06:58.513Z,96635.16
2023-05-16T13:09:29.867Z,96636.72
2023-05-16T13:11:59.857Z,96625.47
2023-05-16T13:14:27.605Z,96625.69
2023-05-16T13:16:54.646Z,96627.63
2023-05-16T13:19:23.371Z,96643.75
2023-05-16T13:21:52.843Z,96634.84
2023-05-16T13:24:19.658Z,96637.19
2023-05-16T13:26:46.775Z,96622.72
2023-05-16T13:29:15.261Z,96617.22
2023-05-16T13:31:43.025Z,96622.94
2023-05-16T13:34:10.564Z,96627.97
2023-05-16T13:36:52.149Z,96623.91
2023-05-16T13:39:19.856Z,96621.94
2023-05-16T13:41:49.091Z,96620.69
2023-05-16T13:44:16.914Z,96620.63
2023-05-16T13:46:44.480Z,96614.91
2023-05-16T13:49:11.518Z,96607.66
2023-05-16T13:51:39.069Z,96613.84
2023-05-16T13:54:06.121Z,96599.72
2023-05-16T13:56:35.428Z,96609.00
2023-05-16T13:59:06.830Z,96600.72
2023-05-16T14:01:34.575Z,96598.59
2023-05-16T14:04:01.548Z,96597.78
2023-05-16T14:06:28.503Z,96591.13
2023-05-16T14:08:55.572Z,96596.50
2023-05-16T14:11:28.808Z,96589.50
2023-05-16T14:13:57.704Z,96597.16
2023-05-16T14:16:24.985Z,96598.84
2023-05-16T14:18:52.123Z,96607.72
2023-05-16T14:21:22.110Z,96593.53
2023-05-16T14:23:48.941Z,96589.09
2023-05-16T14:26:16.382Z,96593.06
2023-05-16T14:28:43.781Z,96589.00
2023-05-16T14:31:10.895Z,96585.19
2023-05-16T14:33:45.060Z,96584.25
2023-05-16T14:36:11.993Z,96562.75
2023-05-16T14:38:42.405Z,96568.00
2023-05-16T14:41:09.194Z,96552.75
2023-05-16T14:43:36.239Z,96547.19
2023-05-16T14:46:03.560Z,96551.72
2023-05-16T14:48:31.661Z,96544.38
2023-05-16T14:50:58.443Z,96547.53
2023-05-16T14:53:25.437Z,96559.78
2023-05-16T14:55:52.209Z,96561.22
2023-05-16T14:58:19.116Z,96560.63
2023-05-16T15:00:45.976Z,96564.25
2023-05-16T15:03:15.132Z,96572.31
2023-05-16T15:05:43.007Z,96567.72
2023-05-16T15:08:10.599Z,96576.47
2023-05-16T15:10:37.600Z,96587.56
2023-05-16T15:13:08.003Z,96584.84
2023-05-16T15:15:34.833Z,96592.41
2023-05-16T15:18:01.986Z,96576.06
2023-05-16T15:20:29.276Z,96586.06
2023-05-16T15:22:59.593Z,96588.88
2023-05-16T15:25:26.739Z,96583.63
2023-05-16T15:27:54.401Z,96585.50
2023-05-16T15:30:21.467Z,96584.97
2023-05-16T15:32:48.482Z,96587.91
2023-05-16T15:35:18.285Z,96576.81
2023-05-16T15:37:46.329Z,96578.84
2023-05-16T15:40:26.976Z,96590.63
2023-05-16T15:42:55.208Z,96593.38
2023-05-16T15:45:22.400Z,96594.41
2023-05-16T15:47:50.097Z,96595.59
2023-05-16T15:50:17.010Z,96593.88
2023-05-16T15:52:46.994Z,96588.47
2023-05-16T15:55:13.984Z,96588.03
2023-05-16T15:57:40.777Z,96589.16
2023-05-16T16:00:14.451Z,96583.56
2023-05-16T16:02:43.810Z,96587.75
2023-05-16T16:05:10.908Z,96580.28
2023-05-16T16:07:40.756Z,96583.81
2023-05-16T16:10:08.235Z,96598.69
2023-05-16T16:12:37.110Z,96590.56
2023-05-16T16:15:06.852Z,96604.16
2023-05-16T16:17:36.984Z,96603.41
2023-05-16T16:20:04.225Z,96606.13
2023-05-16T16:22:31.999Z,96597.28
2023-05-16T16:25:02.466Z,96611.59
2023-05-16T16:27:29.299Z,96607.50
2023-05-16T16:29:56.040Z,96602.16
2023-05-16T16:32:26.059Z,96610.59
2023-05-16T16:34:56.442Z,96603.78
2023-05-16T16:40:17.179Z,96602.72
2023-05-16T16:42:44.097Z,96613.19
2023-05-16T16:45:11.189Z,96603.81
2023-05-16T16:47:40.582Z,96596.47
2023-05-16T16:50:11.811Z,96605.97
2023-05-16T16:52:43.654Z,96609.91
2023-05-16T16:55:17.335Z,96609.75
2023-05-16T16:57:44.518Z,96617.81
2023-05-16T17:00:12.237Z,96613.69
2023-05-16T17:02:47.576Z,96621.72
2023-05-16T17:05:14.856Z,96627.56
2023-05-16T17:07:42.829Z,96621.41
2023-05-16T17:10:16.004Z,96613.84
2023-05-16T17:12:49.516Z,96616.53
2023-05-16T17:15:20.344Z,96613.44
2023-05-16T17:17:49.380Z,96611.22
2023-05-16T17:20:16.825Z,96616.97
2023-05-16T17:22:43.936Z,96629.31
2023-05-16T17:25:10.743Z,96626.84
2023-05-16T17:27:37.912Z,96624.41
2023-05-16T17:30:06.037Z,96620.94
2023-05-16T17:32:33.027Z,96628.72
2023-05-16T17:35:03.901Z,96637.59
2023-05-16T17:37:30.846Z,96644.16
2023-05-16T17:39:58.684Z,96641.88
2023-05-16T17:42:26.045Z,96639.63
2023-05-16T17:44:53.705Z,96647.44
2023-05-16T17:47:30.070Z,96649.06
2023-05-16T17:50:01.301Z,96655.19
2023-05-16T17:52:28.326Z,96652.72
2023-05-16T17:54:55.690Z,96651.91
2023-05-16T17:57:22.951Z,96659.06
2023-05-16T17:59:52.585Z,96650.06
2023-05-16T18:02:20.224Z,96646.97
2023-05-16T18:04:48.590Z,96655.16
2023-05-16T18:07:16.714Z,96652.28
2023-05-16T18:09:44.335Z,96657.00
2023-05-16T18:12:12.691Z,96662.75
2023-05-16T18:14:41.613Z,96654.94
2023-05-16T18:17:29.501Z,96658.66
2023-05-16T18:20:21.339Z,96649.81
2023-05-16T18:22:50.630Z,96660.88
2023-05-16T18:25:21.349Z,96653.91
2023-05-16T18:27:48.387Z,96646.94
2023-05-16T18:30:16.631Z,96646.13
2023-05-16T18:32:47.337Z,96652.03
2023-05-16T18:35:14.899Z,96650.63
2023-05-16T18:37:44.180Z,96648.50
2023-05-16T18:40:14.637Z,96652.59
2023-05-16T18:42:45.378Z,96647.69
2023-05-16T18:45:23.305Z,96650.56
2023-05-16T18:47:53.759Z,96662.03
2023-05-16T18:50:21.818Z,96660.78
2023-05-16T18:52:52.756Z,96671.41
2023-05-16T18:55:20.362Z,96671.78
2023-05-16T18:57:47.487Z,96663.00
2023-05-16T19:00:15.077Z,96666.03
2023-05-16T19:02:45.306Z,96659.22
2023-05-16T19:05:14.710Z,96664.13
2023-05-16T19:07:42.303Z,96657.16
2023-05-16T19:10:13.601Z,96656.13
2023-05-16T19:12:47.381Z,96656.69
2023-05-16T19:15:14.168Z,96654.03
2023-05-16T19:17:42.682Z,96654.03
2023-05-16T19:20:11.139Z,96652.00
2023-05-16T19:22:38.799Z,96648.69
2023-05-16T19:25:07.150Z,96640.66
2023-05-16T19:27:34.690Z,96651.78
2023-05-16T19:30:02.084Z,96653.78
2023-05-16T19:32:35.731Z,96649.88
2023-05-16T19:35:07.702Z,96642.94
2023-05-16T19:37:35.839Z,96642.44
2023-05-16T19:40:05.498Z,96655.88
2023-05-16T19:42:41.565Z,96648.53
2023-05-16T19:45:09.417Z,96645.69
2023-05-16T19:47:46.011Z,96631.56
2023-05-16T19:50:13.334Z,96631.78
2023-05-16T19:52:40.352Z,96633.88
2023-05-16T19:55:08.689Z,96634.69
2023-05-16T19:57:36.025Z,96633.03
2023-05-16T20:00:07.278Z,96627.31
2023-05-16T20:02:34.423Z,96619.31
2023-05-16T20:05:01.496Z,96608.25
2023-05-16T20:07:28.432Z,96590.41
2023-05-16T20:09:55.391Z,96600.66
2023-05-16T20:12:22.488Z,96611.53
2023-05-16T20:14:49.680Z,96608.44
2023-05-16T20:17:16.813Z,96616.03
2023-05-16T20:19:44.347Z,96606.38
2023-05-16T20:22:12.079Z,96613.78
2023-05-16T20:24:39.333Z,96627.13
2023-05-16T20:27:06.251Z,96633.84
2023-05-16T20:29:35.586Z,96612.13
2023-05-16T20:32:04.660Z,96628.13
2023-05-16T20:34:32.278Z,96629.53
2023-05-16T20:36:59.289Z,96616.66
2023-05-16T20:39:32.148Z,96625.44
2023-05-16T20:42:02.134Z,96624.41
2023-05-16T20:44:29.388Z,96626.66
2023-05-16T20:46:56.195Z,96613.56
2023-05-16T20:49:23.132Z,96628.91
2023-05-16T20:51:51.025Z,96644.44
2023-05-16T20:54:18.451Z,96643.22
2023-05-16T20:56:45.833Z,96652.22
2023-05-16T20:59:13.032Z,96653.06
2023-05-16T21:01:46.600Z,96652.69
2023-05-16T21:04:20.787Z,96661.28
2023-05-16T21:06:47.855Z,96666.19
2023-05-16T21:09:14.856Z,96641.59
2023-05-16T21:11:42.547Z,96634.22
2023-05-16T21:14:10.047Z,96649.81
2023-05-16T21:16:38.224Z,96670.09
2023-05-16T21:19:05.736Z,96665.09
2023-05-16T21:21:32.981Z,96654.19
2023-05-16T21:24:00.101Z,96657.00
2023-05-16T21:26:27.312Z,96669.66
2023-05-16T21:28:55.903Z,96670.63
2023-05-16T21:31:23.674Z,96655.63
2023-05-16T21:33:53.530Z,96644.25
2023-05-16T21:36:21.036Z,96639.09
2023-05-16T21:38:57.885Z,96643.28
2023-05-16T21:41:37.250Z,96666.28
2023-05-16T21:44:04.153Z,96689.09
2023-05-16T21:46:31.933Z,96685.41
2023-05-16T21:49:01.441Z,96646.84
2023-05-16T21:51:28.618Z,96622.84
2023-05-16T21:53:55.516Z,96607.41
2023-05-16T21:56:23.223Z,96626.56
2023-05-16T21:58:53.526Z,96610.78
2023-05-16T22:01:25.374Z,96600.41
2023-05-16T22:06:56.800Z,96633.88
2023-05-16T22:09:26.516Z,96629.44
2023-05-16T22:11:53.270Z,96640.78
2023-05-16T22:14:20.066Z,96657.59
2023-05-16T22:16:46.980Z,96658.72
2023-05-16T22:19:16.802Z,96680.47
2023-05-16T22:21:43.556Z,96696.03
2023-05-16T22:24:12.299Z,96687.69
2023-05-16T22:26:39.418Z,96671.41
2023-05-16T22:29:09.531Z,96666.13
2023-05-16T22:31:36.504Z,96664.94
2023-05-16T22:34:05.729Z,96687.09
2023-05-16T22:36:34.945Z,96680.88
2023-05-16T22:39:02.026Z,96669.22
2023-05-16T22:41:31.720Z,96656.22
2023-05-16T22:43:58.557Z,96666.84
2023-05-16T22:46:28.557Z,96667.94
2023-05-16T22:48:55.645Z,96663.19
2023-05-16T22:51:24.326Z,96657.50
2023-05-16T22:53:51.231Z,96640.22
2023-05-16T22:56:18.040Z,96629.03
2023-05-16T22:58:47.735Z,96601.66
2023-05-16T23:01:14.775Z,96624.91
2023-05-16T23:03:44.309Z,96636.97
2023-05-16T23:06:11.153Z,96644.66
2023-05-16T23:08:42.335Z,96641.34
2023-05-16T23:11:09.174Z,96646.66
2023-05-16T23:13:36.005Z,96638.16
2023-05-16T23:16:12.444Z,96634.25
2023-05-16T23:18:39.688Z,96623.84
2023-05-16T23:21:06.905Z,96627.03
2023-05-16T23:23:33.856Z,96619.06
2023-05-16T23:26:00.746Z,96617.78
2023-05-16T23:28:27.543Z,96611.88
2023-05-16T23:30:57.698Z,96607.56
2023-05-16T23:33:28.014Z,96610.84
2023-05-16T23:35:58.948Z,96611.31
2023-05-16T23:38:28.577Z,96610.47
2023-05-16T23:40:55.975Z,96597.84
2023-05-16T23:43:22.870Z,96594.69
2023-05-16T23:45:52.624Z,96594.03
2023-05-16T23:48:19.716Z,96605.00
2023-05-16T23:50:46.667Z,96600.16
2023-05-16T23:53:13.729Z,96591.47
2023-05-16T23:55:40.949Z,96600.44
2023-05-16T23:58:18.059Z,96601.53
